METAR AND TAF INFORMATION
METAR FOR SVBM
ADDS - METARS form results

(2016 UTC 05 April 2020)
Data provider http://aviationweather.gov/metar/data/
 
METAR text: SVBM 052002Z AUTO 15008KT NCD 33/17 Q1011
Conditions at: SVBM (BARQUISIMETO (MI, VE) observed 2002 UTC 05 April 2020
Temperature: 33.0°C (91°F)
Dewpoint: 17.0°C (63°F) [RH = 39%]
Pressure (altimeter): 29.85 inches Hg (1011.0 mb)
Winds: from the SSE (150 degrees) at 9 MPH (8 knots; 4.1 m/s)
Visibility: missing
Ceiling: at least 12,000 feet AGL
Clouds: sky clear below 12,000 feet AGL
Weather: no significant weather observed at this time

METAR text: SVBM 052000Z 09009KT 9999 SCT016 33/18 Q1011
Conditions at: SVBM (BARQUISIMETO (MI, VE) observed 2000 UTC 05 April 2020
Temperature: 33.0°C (91°F)
Dewpoint: 18.0°C (64°F) [RH = 41%]
Pressure (altimeter): 29.85 inches Hg (1011.0 mb)
Winds: from the E (90 degrees) at 10 MPH (9 knots; 4.6 m/s)
Visibility: 6 or more miles (10+ km)
Ceiling: at least 12,000 feet AGL
Clouds: scattered clouds at 1600 feet AGL
Weather: no significant weather observed at this time

Forecast for: SVBM (BARQUISIMETO (MI, VE)
Text: TAF SVBM 051553Z 0518/0618 10008KT 9999 SCT013 BKN070 TX32/0518Z TN20/0608Z
Forecast period: 1800 to 2000 UTC 05 April 2020
Forecast type: FROM: standard forecast or significant change
Winds: from the E (100 degrees) at 9 MPH (8 knots; 4.1 m/s)
Visibility: 6 or more miles 10+ km)
Ceiling: 7000 feet AGL
Clouds: scattered clouds at 1300 feet AGL
broken clouds at 7000 feet AGL
Weather: no significant weather forecast for this period
Text: BECMG 0520/0600 11007KT 8000 DZ BKN013
Forecast period: 2000 UTC 05 April 2020 to 1800 UTC 06 April 2020
Forecast type: BECOMING: Conditions expected to become as follows by 0000 UTC 06 April 2020
Winds: from the ESE (110 degrees) at 8 MPH (7 knots; 3.6 m/s)
Visibility: 5 miles (8 km)
Ceiling: 1300 feet AGL
Clouds: broken clouds at 1300 feet AGL
Weather: DZ  (moderate drizzle)

 AIRPORT MAP

 RUNWAY INFORMATION
Runway 09 Runway length 9350 ft Runway width 147 ft
Runway elevation 2042 ft Runway displaced threshold 0 ft Runway heading 81
Runway 27 Runway length 9350 ft Runway width 147 ft
Runway elevation 2001 ft Runway displaced threshold 1541 ft Runway heading 261

 AIRPORT FREQUENCIES
Type A/G Name LANDAETA R Frequency 569.65 MHZ
Type APP Name APP Frequency 119.4 MHZ
Type ATIS Name ATIS Frequency 112.2 MHZ
Type GND Name GND Frequency 121.9 MHZ
Type RDO Name RDO Frequency 123.1 MHZ
Type RDO Name RDO Frequency 132 MHZ
Type TWR Name TWR Frequency 123.5 MHZ

 AIRPORT NEAR NAVIGATION AIDS
Type VOR-DME Name Barquisimeto Frequency 112200 KHZ